Thursday, March 23, 2017, 12:24 AM EDT

KIPT, Williamsport-lycoming County

Location: Montoursville, PA, United States Lat: 41.25
Local Time: 12:24 AM EDT ( 4:24 GMT) Lon: -76.917
Time Zone: US/Eastern Elev: 528 ft

Show me the last for .
Show Decoded

2017-03-22 23:54 METAR KIPT 230354Z AUTO 30009KT 10SM CLR M04/M17 A3050 RMK AO2 SLP335 T10391167
                 TSNO =
2017-03-22 22:54 METAR KIPT 230254Z AUTO 34006KT 10SM CLR M04/M17 A3049 RMK AO2 SLP333 T10391172
                 51021 TSNO =
2017-03-22 21:54 METAR KIPT 230154Z 32005KT 10SM CLR M03/M18 A3048 RMK AO2 SLP327 T10281183 =
2017-03-22 20:54 METAR KIPT 230054Z 34006KT 10SM CLR M02/M18 A3045 RMK AO2 SLP319 T10221183 =
2017-03-22 19:54 METAR KIPT 222354Z 35006KT 10SM CLR M02/M19 A3043 RMK AO2 SLP310 T10171194 10028
                 21017 51029 =
2017-03-22 18:54 METAR KIPT 222254Z 35011G18KT 10SM CLR 00/M19 A3040 RMK AO2 SLP302 T00001189 =
2017-03-22 17:54 METAR KIPT 222154Z 33012G20KT 10SM CLR 01/M20 A3037 RMK AO2 PK WND 35027/2115
                 SLP289 T00111200 =
2017-03-22 16:54 METAR KIPT 222054Z 34014G24KT 10SM CLR 02/M19 A3034 RMK AO2 PK WND 35026/2017
                 SLP279 T00171194 53007 =
2017-03-22 15:54 METAR KIPT 221954Z 31017G26KT 10SM CLR 02/M19 A3033 RMK AO2 PK WND 30031/1940
                 SLP275 T00171194 =
2017-03-22 14:54 METAR KIPT 221854Z 32015G22KT 10SM CLR 02/M18 A3031 RMK AO2 PK WND 31030/1828
                 SLP271 T00171183 =
2017-03-22 13:54 METAR KIPT 221754Z 32018G27KT 10SM CLR 02/M17 A3032 RMK AO2 PK WND 31027/1752
                 SLP271 T00171172 10017 21017 51009 =
2017-03-22 12:54 METAR KIPT 221654Z 32011G23KT 10SM CLR 01/M17 A3032 RMK AO2 PK WND 36027/1639
                 SLP270 T00111172 =
2017-03-22 11:54 METAR KIPT 221554Z 33015G26KT 10SM CLR 00/M18 A3031 RMK AO2 PK WND 33029/1515
                 SLP268 T00001178 =
2017-03-22 10:54 METAR KIPT 221454Z 32019G31KT 10SM CLR M01/M17 A3029 RMK AO2 PK WND 30031/1449
                 SLP263 T10111172 51036 =
2017-03-22 09:54 METAR KIPT 221354Z 34014G24KT 10SM FEW040 M01/M15 A3026 RMK AO2 PK WND
                 34027/1316 SLP250 T10061150 =
2017-03-22 08:54 METAR KIPT 221254Z 32011G22KT 10SM FEW040 M01/M14 A3023 RMK AO2 PK WND
                 30029/1216 SLP239 T10111144 =
2017-03-22 07:54 METAR KIPT 221154Z 31016G26KT 10SM SCT045 M01/M14 A3018 RMK AO2 PK WND
                 33026/1152 SLP225 60000 T10111139 10056 21011 51048 =
2017-03-22 06:54 METAR KIPT 221054Z 33015G23KT 10SM SCT050 BKN060 M01/M09 A3014 RMK AO2 SNE0957
                 SLP211 P0000 T10061089 =
2017-03-22 05:54 METAR KIPT 220954Z AUTO 35015G22KT 9SM -SN FEW032 BKN046 OVC065 00/M06 A3011 RMK
                 AO2 PK WND 32029/0907 RAB04E05UPB05E26SNB14E17B44 SLP198 P0000 T00001061 TSNO =
2017-03-22 04:54 METAR KIPT 220854Z AUTO 29012KT 10SM BKN055 OVC065 03/M08 A3004 RMK AO2 SLP174
                 T00281083 51031 TSNO =
2017-03-22 03:54 METAR KIPT 220754Z AUTO 30010KT 10SM BKN055 03/M07 A3002 RMK AO2 SLP166
                 T00281072 TSNO =
2017-03-22 02:54 METAR KIPT 220654Z AUTO 33011G19KT 10SM BKN046 OVC055 04/M06 A2999 RMK AO2
                 SLP158 T00391061 TSNO =
2017-03-22 01:54 METAR KIPT 220554Z AUTO 30009KT 10SM FEW055 05/M04 A2995 RMK AO2 SLP142
                 T00501044 10117 20017 53015 TSNO =
2017-03-22 00:54 METAR KIPT 220454Z AUTO 32014KT 10SM CLR 07/M05 A2992 RMK AO2 SLP133 T00721050
                 401610017 TSNO =

Support USWX by starting your Amazon purchase here.